Kaami — C6VO9 — position and weather

sailwx.info

Track history (hours):
 
Tides and Currents Weather Stations Pressure Air Temp Water Temp Dewpoint Dewpoint Depression Visibility Wind Speed Wind Dir Waves Ship Positions

Kaami

Last reported at 2015-Jul-03 16:07 UTC. Time now 2015-Jul-03 22:00 UTC.
Position N 63°06' E 007°41'.

Length 90 m; draft 3.6 m.

Type: Cargo ship. MMSI: 308542000.

Date/timePositionNaut miles runAvg speedWind from/ knotsBaromVisibWave heightAir tempDewpointWater temp
2015-Jul-03 16:07N 63°06' E 007°41'5 9.3
2015-Jul-03 15:32N 63°11' E 007°45'217 8.6
2015-Jul-02 14:17N 66°17' E 012°10'710.0
2015-Jul-02 13:33N 66°15' E 012°27'7 7.2
2015-Jul-02 12:31N 66°12' E 012°44'3 0.1
2015-Jul-01 05:07N 66°14' E 012°39'4 7.5
2015-Jul-01 04:33N 66°15' E 012°29'7 7.5
2015-Jul-01 03:33N 66°17' E 012°11'  
2015-Jun-28 23:17N 59°14' E 004°44'7 9.4
2015-Jun-28 22:33N 59°08' E 004°51'9 9.2
2015-Jun-28 21:33N 59°00' E 005°00'9 9.5
2015-Jun-28 20:33N 58°52' E 005°10'10 9.6
2015-Jun-28 19:33N 58°44' E 005°21'1410.1
2015-Jun-28 18:10N 58°33' E 005°35'710.8
2015-Jun-28 17:32N 58°27' E 005°43'1110.8
2015-Jun-28 16:32N 58°20' E 005°58'154 7.7
2015-Jun-27 20:30N 57°41' E 010°39'9 9.3
2015-Jun-27 19:32N 57°36' E 010°53'10 9.7
2015-Jun-27 18:33N 57°30' E 011°08'10 9.6
2015-Jun-27 17:33N 57°24' E 011°21'9 9.1
2015-Jun-27 16:33N 57°17' E 011°32'9 8.9
2015-Jun-27 15:33N 57°09' E 011°41'9 9.1
2015-Jun-27 14:33N 57°01' E 011°48'9 9.1
2015-Jun-27 13:33N 56°53' E 011°55'9 9.1
2015-Jun-27 12:33N 56°45' E 012°02'9 9.2
2015-Jun-27 11:33N 56°36' E 012°09'9 9.4
2015-Jun-27 10:33N 56°28' E 012°16'10 9.6
2015-Jun-27 09:33N 56°19' E 012°23'10 9.9
2015-Jun-27 08:33N 56°10' E 012°30'1010.4
2015-Jun-27 07:33N 56°01' E 012°41'10 9.8
2015-Jun-27 06:33N 55°52' E 012°44'10 9.9
2015-Jun-27 05:33N 55°42' E 012°41'10 9.8
2015-Jun-27 04:33N 55°32' E 012°43'10 9.5
2015-Jun-27 03:33N 55°23' E 012°42'8 7.8
2015-Jun-27 02:33N 55°17' E 012°50'9 9.1
2015-Jun-27 01:33N 55°16' E 013°06'9 9.4
2015-Jun-27 00:33N 55°15' E 013°23'10 9.5
2015-Jun-26 23:32N 55°15' E 013°40'34 8.4
2015-Jun-26 19:33N 55°26' E 014°35'9 8.8
2015-Jun-26 18:33N 55°31' E 014°48'9 8.6
2015-Jun-26 17:32N 55°35' E 015°02'9 8.8
2015-Jun-26 16:33N 55°40' E 015°15'9 8.6
2015-Jun-26 15:33N 55°44' E 015°28'9 8.7
2015-Jun-26 14:33N 55°48' E 015°41'9 8.8
2015-Jun-26 13:33N 55°53' E 015°55'  
Track history (hours):
 
Tides and Currents Weather Stations Pressure Air Temp Water Temp Dewpoint Dewpoint Depression Visibility Wind Speed Wind Dir Waves Ship Positions

Kaami

Last reported at 2015-Jul-03 16:07 UTC. Time now 2015-Jul-03 22:00 UTC.
Position N 63°06' E 007°41'.

Length 90 m; draft 3.6 m.

Type: Cargo ship. MMSI: 308542000.

Date/timePositionNaut miles runAvg speedWind from/ knotsBaromVisibWave heightAir tempDewpointWater temp
2015-Jul-03 16:07N 63°06' E 007°41'5 9.3
2015-Jul-03 15:32N 63°11' E 007°45'217 8.6
2015-Jul-02 14:17N 66°17' E 012°10'710.0
2015-Jul-02 13:33N 66°15' E 012°27'7 7.2
2015-Jul-02 12:31N 66°12' E 012°44'3 0.1
2015-Jul-01 05:07N 66°14' E 012°39'4 7.5
2015-Jul-01 04:33N 66°15' E 012°29'7 7.5
2015-Jul-01 03:33N 66°17' E 012°11'  
2015-Jun-28 23:17N 59°14' E 004°44'7 9.4
2015-Jun-28 22:33N 59°08' E 004°51'9 9.2
2015-Jun-28 21:33N 59°00' E 005°00'9 9.5
2015-Jun-28 20:33N 58°52' E 005°10'10 9.6
2015-Jun-28 19:33N 58°44' E 005°21'1410.1
2015-Jun-28 18:10N 58°33' E 005°35'710.8
2015-Jun-28 17:32N 58°27' E 005°43'1110.8
2015-Jun-28 16:32N 58°20' E 005°58'154 7.7
2015-Jun-27 20:30N 57°41' E 010°39'9 9.3
2015-Jun-27 19:32N 57°36' E 010°53'10 9.7
2015-Jun-27 18:33N 57°30' E 011°08'10 9.6
2015-Jun-27 17:33N 57°24' E 011°21'9 9.1
2015-Jun-27 16:33N 57°17' E 011°32'9 8.9
2015-Jun-27 15:33N 57°09' E 011°41'9 9.1
2015-Jun-27 14:33N 57°01' E 011°48'9 9.1
2015-Jun-27 13:33N 56°53' E 011°55'9 9.1
2015-Jun-27 12:33N 56°45' E 012°02'9 9.2
2015-Jun-27 11:33N 56°36' E 012°09'9 9.4
2015-Jun-27 10:33N 56°28' E 012°16'10 9.6
2015-Jun-27 09:33N 56°19' E 012°23'10 9.9
2015-Jun-27 08:33N 56°10' E 012°30'1010.4
2015-Jun-27 07:33N 56°01' E 012°41'10 9.8
2015-Jun-27 06:33N 55°52' E 012°44'10 9.9
2015-Jun-27 05:33N 55°42' E 012°41'10 9.8
2015-Jun-27 04:33N 55°32' E 012°43'10 9.5
2015-Jun-27 03:33N 55°23' E 012°42'8 7.8
2015-Jun-27 02:33N 55°17' E 012°50'9 9.1
2015-Jun-27 01:33N 55°16' E 013°06'9 9.4
2015-Jun-27 00:33N 55°15' E 013°23'10 9.5
2015-Jun-26 23:32N 55°15' E 013°40'34 8.4
2015-Jun-26 19:33N 55°26' E 014°35'9 8.8
2015-Jun-26 18:33N 55°31' E 014°48'9 8.6
2015-Jun-26 17:32N 55°35' E 015°02'9 8.8
2015-Jun-26 16:33N 55°40' E 015°15'9 8.6
2015-Jun-26 15:33N 55°44' E 015°28'9 8.7
2015-Jun-26 14:33N 55°48' E 015°41'9 8.8
2015-Jun-26 13:33N 55°53' E 015°55'  

Dump ship's entire track history